sensor_id;sensor_type;location;lat;lon;timestamp;P1;durP1;ratioP1;P2;durP2;ratioP2
12429;SDS011;6279;42.192;24.326;2023-03-07T00:00:40;13.17;;;9.37;;
12429;SDS011;6279;42.192;24.326;2023-03-07T00:03:06;9.87;;;8.83;;
12429;SDS011;6279;42.192;24.326;2023-03-07T00:05:32;12.70;;;9.07;;
12429;SDS011;6279;42.192;24.326;2023-03-07T00:07:58;13.27;;;9.63;;
12429;SDS011;6279;42.192;24.326;2023-03-07T00:10:24;12.37;;;9.07;;
12429;SDS011;6279;42.192;24.326;2023-03-07T00:12:50;14.10;;;9.50;;
12429;SDS011;6279;42.192;24.326;2023-03-07T00:15:15;16.63;;;11.70;;
12429;SDS011;6279;42.192;24.326;2023-03-07T00:17:44;19.50;;;12.13;;
12429;SDS011;6279;42.192;24.326;2023-03-07T00:20:10;19.40;;;12.17;;
12429;SDS011;6279;42.192;24.326;2023-03-07T00:22:38;18.57;;;12.13;;
12429;SDS011;6279;42.192;24.326;2023-03-07T00:25:04;21.90;;;13.40;;
12429;SDS011;6279;42.192;24.326;2023-03-07T00:27:32;19.30;;;12.47;;
12429;SDS011;6279;42.192;24.326;2023-03-07T00:29:58;17.87;;;12.30;;
12429;SDS011;6279;42.192;24.326;2023-03-07T00:32:25;24.47;;;12.20;;
12429;SDS011;6279;42.192;24.326;2023-03-07T00:34:51;17.13;;;12.50;;
12429;SDS011;6279;42.192;24.326;2023-03-07T00:37:16;17.57;;;11.97;;
12429;SDS011;6279;42.192;24.326;2023-03-07T00:39:42;18.27;;;12.57;;
12429;SDS011;6279;42.192;24.326;2023-03-07T00:42:07;20.90;;;12.33;;
12429;SDS011;6279;42.192;24.326;2023-03-07T00:44:36;23.80;;;13.30;;
12429;SDS011;6279;42.192;24.326;2023-03-07T00:47:01;21.07;;;14.00;;
12429;SDS011;6279;42.192;24.326;2023-03-07T00:49:27;21.20;;;13.83;;
12429;SDS011;6279;42.192;24.326;2023-03-07T00:51:55;20.23;;;14.00;;
12429;SDS011;6279;42.192;24.326;2023-03-07T00:54:20;21.93;;;14.20;;
12429;SDS011;6279;42.192;24.326;2023-03-07T00:56:46;22.50;;;14.97;;
12429;SDS011;6279;42.192;24.326;2023-03-07T00:59:11;20.73;;;14.63;;
12429;SDS011;6279;42.192;24.326;2023-03-07T01:01:37;24.00;;;15.23;;
12429;SDS011;6279;42.192;24.326;2023-03-07T01:04:02;22.40;;;15.57;;
12429;SDS011;6279;42.192;24.326;2023-03-07T01:06:29;22.10;;;14.80;;
12429;SDS011;6279;42.192;24.326;2023-03-07T01:08:56;23.00;;;15.13;;
12429;SDS011;6279;42.192;24.326;2023-03-07T01:11:23;21.93;;;14.67;;
12429;SDS011;6279;42.192;24.326;2023-03-07T01:13:49;20.67;;;14.67;;
12429;SDS011;6279;42.192;24.326;2023-03-07T01:16:22;21.53;;;14.70;;
12429;SDS011;6279;42.192;24.326;2023-03-07T01:18:51;21.37;;;14.27;;
12429;SDS011;6279;42.192;24.326;2023-03-07T01:21:19;24.60;;;15.10;;
12429;SDS011;6279;42.192;24.326;2023-03-07T01:23:46;22.30;;;14.70;;
12429;SDS011;6279;42.192;24.326;2023-03-07T01:26:13;18.47;;;14.20;;
12429;SDS011;6279;42.192;24.326;2023-03-07T01:28:40;22.70;;;14.47;;
12429;SDS011;6279;42.192;24.326;2023-03-07T01:31:05;22.23;;;13.67;;
12429;SDS011;6279;42.192;24.326;2023-03-07T01:33:31;24.93;;;15.57;;
12429;SDS011;6279;42.192;24.326;2023-03-07T01:35:56;20.47;;;14.70;;
12429;SDS011;6279;42.192;24.326;2023-03-07T01:38:22;25.20;;;14.93;;
12429;SDS011;6279;42.192;24.326;2023-03-07T01:40:47;22.17;;;14.27;;
12429;SDS011;6279;42.192;24.326;2023-03-07T01:48:13;22.00;;;14.50;;
12429;SDS011;6279;42.192;24.326;2023-03-07T01:50:38;20.00;;;14.90;;
12429;SDS011;6279;42.192;24.326;2023-03-07T01:53:04;21.77;;;14.37;;
12429;SDS011;6279;42.192;24.326;2023-03-07T01:55:30;20.17;;;14.07;;
12429;SDS011;6279;42.192;24.326;2023-03-07T01:57:58;18.93;;;13.40;;
12429;SDS011;6279;42.192;24.326;2023-03-07T02:00:28;19.23;;;13.03;;
12429;SDS011;6279;42.192;24.326;2023-03-07T02:05:35;21.23;;;14.13;;
12429;SDS011;6279;42.192;24.326;2023-03-07T02:08:05;18.20;;;13.87;;
12429;SDS011;6279;42.192;24.326;2023-03-07T02:10:32;18.40;;;13.20;;
12429;SDS011;6279;42.192;24.326;2023-03-07T02:13:00;17.77;;;12.67;;
12429;SDS011;6279;42.192;24.326;2023-03-07T02:15:25;21.60;;;14.27;;
12429;SDS011;6279;42.192;24.326;2023-03-07T02:17:51;19.87;;;13.07;;
12429;SDS011;6279;42.192;24.326;2023-03-07T02:23:20;18.43;;;13.20;;
12429;SDS011;6279;42.192;24.326;2023-03-07T02:26:06;17.90;;;12.60;;
12429;SDS011;6279;42.192;24.326;2023-03-07T02:28:37;18.07;;;13.23;;
12429;SDS011;6279;42.192;24.326;2023-03-07T02:31:06;18.13;;;12.23;;
12429;SDS011;6279;42.192;24.326;2023-03-07T02:33:32;19.73;;;12.47;;
12429;SDS011;6279;42.192;24.326;2023-03-07T02:36:02;17.27;;;12.30;;
12429;SDS011;6279;42.192;24.326;2023-03-07T02:38:31;17.23;;;11.23;;
12429;SDS011;6279;42.192;24.326;2023-03-07T02:41:01;14.10;;;10.67;;
12429;SDS011;6279;42.192;24.326;2023-03-07T02:43:28;15.63;;;10.87;;
12429;SDS011;6279;42.192;24.326;2023-03-07T02:45:53;15.47;;;11.00;;
12429;SDS011;6279;42.192;24.326;2023-03-07T02:48:19;15.87;;;10.43;;
12429;SDS011;6279;42.192;24.326;2023-03-07T02:50:46;14.60;;;10.57;;
12429;SDS011;6279;42.192;24.326;2023-03-07T02:53:12;18.30;;;10.57;;
12429;SDS011;6279;42.192;24.326;2023-03-07T02:55:38;15.70;;;10.93;;
12429;SDS011;6279;42.192;24.326;2023-03-07T02:58:03;16.83;;;10.87;;
12429;SDS011;6279;42.192;24.326;2023-03-07T03:00:29;12.83;;;9.57;;
12429;SDS011;6279;42.192;24.326;2023-03-07T03:03:13;12.10;;;9.57;;
12429;SDS011;6279;42.192;24.326;2023-03-07T03:06:13;11.80;;;9.00;;
12429;SDS011;6279;42.192;24.326;2023-03-07T03:08:39;11.20;;;8.23;;
12429;SDS011;6279;42.192;24.326;2023-03-07T03:11:04;11.40;;;8.53;;
12429;SDS011;6279;42.192;24.326;2023-03-07T03:13:29;14.27;;;9.93;;
12429;SDS011;6279;42.192;24.326;2023-03-07T03:15:55;14.23;;;10.10;;
12429;SDS011;6279;42.192;24.326;2023-03-07T03:18:22;14.93;;;11.13;;
12429;SDS011;6279;42.192;24.326;2023-03-07T03:20:48;15.73;;;10.87;;
12429;SDS011;6279;42.192;24.326;2023-03-07T03:23:13;16.07;;;11.17;;
12429;SDS011;6279;42.192;24.326;2023-03-07T03:25:39;14.93;;;11.13;;
12429;SDS011;6279;42.192;24.326;2023-03-07T03:28:04;20.80;;;11.07;;
12429;SDS011;6279;42.192;24.326;2023-03-07T03:30:30;15.07;;;11.13;;
12429;SDS011;6279;42.192;24.326;2023-03-07T03:32:56;17.13;;;11.30;;
12429;SDS011;6279;42.192;24.326;2023-03-07T03:35:22;15.30;;;11.13;;
12429;SDS011;6279;42.192;24.326;2023-03-07T03:37:48;18.30;;;11.67;;
12429;SDS011;6279;42.192;24.326;2023-03-07T03:40:13;16.37;;;11.43;;
12429;SDS011;6279;42.192;24.326;2023-03-07T03:42:41;15.50;;;10.80;;
12429;SDS011;6279;42.192;24.326;2023-03-07T03:45:08;17.13;;;10.70;;
12429;SDS011;6279;42.192;24.326;2023-03-07T03:47:35;18.00;;;12.07;;
12429;SDS011;6279;42.192;24.326;2023-03-07T03:50:00;18.20;;;13.03;;
12429;SDS011;6279;42.192;24.326;2023-03-07T03:52:26;16.07;;;11.93;;
12429;SDS011;6279;42.192;24.326;2023-03-07T03:54:51;17.47;;;12.40;;
12429;SDS011;6279;42.192;24.326;2023-03-07T03:57:17;19.43;;;12.97;;
12429;SDS011;6279;42.192;24.326;2023-03-07T03:59:44;19.73;;;12.93;;
12429;SDS011;6279;42.192;24.326;2023-03-07T04:02:11;17.77;;;10.83;;
12429;SDS011;6279;42.192;24.326;2023-03-07T04:04:36;18.17;;;11.93;;
12429;SDS011;6279;42.192;24.326;2023-03-07T04:07:01;17.00;;;11.50;;
12429;SDS011;6279;42.192;24.326;2023-03-07T04:09:28;16.33;;;11.70;;
12429;SDS011;6279;42.192;24.326;2023-03-07T04:11:55;16.80;;;12.73;;
12429;SDS011;6279;42.192;24.326;2023-03-07T04:14:21;17.57;;;11.73;;
12429;SDS011;6279;42.192;24.326;2023-03-07T04:16:46;18.77;;;12.53;;
12429;SDS011;6279;42.192;24.326;2023-03-07T04:19:12;15.80;;;11.97;;
12429;SDS011;6279;42.192;24.326;2023-03-07T04:21:38;15.03;;;11.47;;
12429;SDS011;6279;42.192;24.326;2023-03-07T04:24:05;18.73;;;12.70;;
12429;SDS011;6279;42.192;24.326;2023-03-07T04:26:32;21.50;;;14.70;;
12429;SDS011;6279;42.192;24.326;2023-03-07T04:28:57;26.00;;;13.17;;
12429;SDS011;6279;42.192;24.326;2023-03-07T04:31:24;22.30;;;13.97;;
12429;SDS011;6279;42.192;24.326;2023-03-07T04:33:51;22.53;;;14.50;;
12429;SDS011;6279;42.192;24.326;2023-03-07T04:36:18;28.73;;;15.90;;
12429;SDS011;6279;42.192;24.326;2023-03-07T04:38:44;25.83;;;15.17;;
12429;SDS011;6279;42.192;24.326;2023-03-07T04:41:12;23.23;;;15.43;;
12429;SDS011;6279;42.192;24.326;2023-03-07T04:43:42;30.13;;;15.30;;
12429;SDS011;6279;42.192;24.326;2023-03-07T04:46:08;45.00;;;23.17;;
12429;SDS011;6279;42.192;24.326;2023-03-07T04:48:34;35.90;;;19.93;;
12429;SDS011;6279;42.192;24.326;2023-03-07T04:51:00;34.80;;;19.00;;
12429;SDS011;6279;42.192;24.326;2023-03-07T04:53:25;29.93;;;18.13;;
12429;SDS011;6279;42.192;24.326;2023-03-07T04:55:55;29.73;;;18.43;;
12429;SDS011;6279;42.192;24.326;2023-03-07T04:58:22;20.50;;;13.67;;
12429;SDS011;6279;42.192;24.326;2023-03-07T05:00:48;21.80;;;12.50;;
12429;SDS011;6279;42.192;24.326;2023-03-07T05:03:13;17.17;;;12.40;;
12429;SDS011;6279;42.192;24.326;2023-03-07T05:05:39;18.47;;;12.57;;
12429;SDS011;6279;42.192;24.326;2023-03-07T05:08:05;21.83;;;12.80;;
12429;SDS011;6279;42.192;24.326;2023-03-07T05:10:31;18.00;;;12.63;;
12429;SDS011;6279;42.192;24.326;2023-03-07T05:12:57;16.10;;;12.13;;
12429;SDS011;6279;42.192;24.326;2023-03-07T05:15:23;19.93;;;13.23;;
12429;SDS011;6279;42.192;24.326;2023-03-07T05:17:49;20.23;;;14.63;;
12429;SDS011;6279;42.192;24.326;2023-03-07T05:20:14;22.00;;;14.37;;
12429;SDS011;6279;42.192;24.326;2023-03-07T05:22:40;20.23;;;13.40;;
12429;SDS011;6279;42.192;24.326;2023-03-07T05:25:05;19.87;;;13.30;;
12429;SDS011;6279;42.192;24.326;2023-03-07T05:27:31;20.67;;;13.70;;
12429;SDS011;6279;42.192;24.326;2023-03-07T05:29:57;18.60;;;13.20;;
12429;SDS011;6279;42.192;24.326;2023-03-07T05:32:23;20.53;;;14.07;;
12429;SDS011;6279;42.192;24.326;2023-03-07T05:34:48;18.40;;;15.00;;
12429;SDS011;6279;42.192;24.326;2023-03-07T05:37:13;21.93;;;15.87;;
12429;SDS011;6279;42.192;24.326;2023-03-07T05:39:39;25.20;;;17.07;;
12429;SDS011;6279;42.192;24.326;2023-03-07T05:42:04;24.70;;;15.67;;
12429;SDS011;6279;42.192;24.326;2023-03-07T05:44:30;27.80;;;17.43;;
12429;SDS011;6279;42.192;24.326;2023-03-07T05:46:55;26.57;;;16.70;;
12429;SDS011;6279;42.192;24.326;2023-03-07T05:49:20;26.70;;;17.57;;
12429;SDS011;6279;42.192;24.326;2023-03-07T05:51:46;37.60;;;30.50;;
12429;SDS011;6279;42.192;24.326;2023-03-07T05:54:11;44.37;;;29.27;;
12429;SDS011;6279;42.192;24.326;2023-03-07T05:56:36;34.23;;;27.57;;
12429;SDS011;6279;42.192;24.326;2023-03-07T05:59:02;37.57;;;23.87;;
12429;SDS011;6279;42.192;24.326;2023-03-07T06:01:31;36.10;;;24.40;;
12429;SDS011;6279;42.192;24.326;2023-03-07T06:03:57;31.83;;;25.03;;
12429;SDS011;6279;42.192;24.326;2023-03-07T06:06:23;26.97;;;18.03;;
12429;SDS011;6279;42.192;24.326;2023-03-07T06:08:48;31.90;;;15.43;;
12429;SDS011;6279;42.192;24.326;2023-03-07T06:11:13;20.90;;;14.40;;
12429;SDS011;6279;42.192;24.326;2023-03-07T06:13:39;24.63;;;13.73;;
12429;SDS011;6279;42.192;24.326;2023-03-07T06:16:04;19.70;;;12.57;;
12429;SDS011;6279;42.192;24.326;2023-03-07T06:18:30;19.97;;;12.00;;
12429;SDS011;6279;42.192;24.326;2023-03-07T06:20:56;18.37;;;12.37;;
12429;SDS011;6279;42.192;24.326;2023-03-07T06:23:24;22.40;;;12.50;;
12429;SDS011;6279;42.192;24.326;2023-03-07T06:25:50;20.07;;;11.67;;
12429;SDS011;6279;42.192;24.326;2023-03-07T06:28:16;17.83;;;11.27;;
12429;SDS011;6279;42.192;24.326;2023-03-07T06:30:41;16.20;;;12.23;;
12429;SDS011;6279;42.192;24.326;2023-03-07T06:33:06;20.57;;;12.90;;
12429;SDS011;6279;42.192;24.326;2023-03-07T06:35:32;18.40;;;13.33;;
12429;SDS011;6279;42.192;24.326;2023-03-07T06:37:57;17.33;;;12.07;;
12429;SDS011;6279;42.192;24.326;2023-03-07T06:40:23;22.20;;;14.33;;
12429;SDS011;6279;42.192;24.326;2023-03-07T06:42:48;23.70;;;15.13;;
12429;SDS011;6279;42.192;24.326;2023-03-07T06:45:16;24.23;;;18.87;;
12429;SDS011;6279;42.192;24.326;2023-03-07T06:47:41;21.67;;;16.43;;
12429;SDS011;6279;42.192;24.326;2023-03-07T06:50:07;19.67;;;15.93;;
12429;SDS011;6279;42.192;24.326;2023-03-07T06:52:33;21.33;;;16.30;;
12429;SDS011;6279;42.192;24.326;2023-03-07T06:54:58;20.50;;;13.00;;
12429;SDS011;6279;42.192;24.326;2023-03-07T06:57:25;22.90;;;14.17;;
12429;SDS011;6279;42.192;24.326;2023-03-07T06:59:50;17.93;;;13.13;;
12429;SDS011;6279;42.192;24.326;2023-03-07T07:02:15;15.53;;;11.83;;
12429;SDS011;6279;42.192;24.326;2023-03-07T07:04:41;14.53;;;11.20;;
12429;SDS011;6279;42.192;24.326;2023-03-07T07:07:06;12.57;;;10.07;;
12429;SDS011;6279;42.192;24.326;2023-03-07T07:09:32;15.60;;;10.87;;
12429;SDS011;6279;42.192;24.326;2023-03-07T07:11:58;11.47;;;8.73;;
12429;SDS011;6279;42.192;24.326;2023-03-07T07:14:24;11.77;;;8.30;;
12429;SDS011;6279;42.192;24.326;2023-03-07T07:16:49;10.13;;;8.63;;
12429;SDS011;6279;42.192;24.326;2023-03-07T07:19:15;9.60;;;8.60;;
12429;SDS011;6279;42.192;24.326;2023-03-07T07:21:40;9.47;;;8.00;;
12429;SDS011;6279;42.192;24.326;2023-03-07T07:24:06;10.57;;;7.83;;
12429;SDS011;6279;42.192;24.326;2023-03-07T07:26:31;12.47;;;8.00;;
12429;SDS011;6279;42.192;24.326;2023-03-07T07:28:57;9.70;;;8.00;;
12429;SDS011;6279;42.192;24.326;2023-03-07T07:31:22;9.93;;;7.93;;
12429;SDS011;6279;42.192;24.326;2023-03-07T07:33:47;12.77;;;8.23;;
12429;SDS011;6279;42.192;24.326;2023-03-07T07:36:13;14.67;;;8.60;;
12429;SDS011;6279;42.192;24.326;2023-03-07T07:38:38;12.57;;;8.80;;
12429;SDS011;6279;42.192;24.326;2023-03-07T07:41:04;12.40;;;8.10;;
12429;SDS011;6279;42.192;24.326;2023-03-07T07:43:29;10.30;;;8.63;;
12429;SDS011;6279;42.192;24.326;2023-03-07T07:45:54;10.87;;;8.77;;
12429;SDS011;6279;42.192;24.326;2023-03-07T07:48:20;16.00;;;9.37;;
12429;SDS011;6279;42.192;24.326;2023-03-07T07:50:49;10.93;;;9.10;;
12429;SDS011;6279;42.192;24.326;2023-03-07T07:53:17;9.67;;;7.47;;
12429;SDS011;6279;42.192;24.326;2023-03-07T07:55:45;12.13;;;8.03;;
12429;SDS011;6279;42.192;24.326;2023-03-07T07:58:10;9.97;;;8.37;;
12429;SDS011;6279;42.192;24.326;2023-03-07T08:00:38;10.20;;;7.90;;
12429;SDS011;6279;42.192;24.326;2023-03-07T08:03:12;10.30;;;8.37;;
12429;SDS011;6279;42.192;24.326;2023-03-07T08:05:42;30.70;;;27.67;;
12429;SDS011;6279;42.192;24.326;2023-03-07T08:08:09;11.73;;;9.40;;
12429;SDS011;6279;42.192;24.326;2023-03-07T08:10:34;10.20;;;8.90;;
12429;SDS011;6279;42.192;24.326;2023-03-07T08:13:00;9.57;;;8.57;;
12429;SDS011;6279;42.192;24.326;2023-03-07T08:15:25;10.23;;;8.90;;
12429;SDS011;6279;42.192;24.326;2023-03-07T08:17:51;13.37;;;9.60;;
12429;SDS011;6279;42.192;24.326;2023-03-07T08:20:17;9.57;;;8.57;;
12429;SDS011;6279;42.192;24.326;2023-03-07T08:22:47;10.53;;;9.23;;
12429;SDS011;6279;42.192;24.326;2023-03-07T08:25:17;13.40;;;9.20;;
12429;SDS011;6279;42.192;24.326;2023-03-07T08:27:45;10.80;;;9.70;;
12429;SDS011;6279;42.192;24.326;2023-03-07T08:30:11;13.27;;;9.87;;
12429;SDS011;6279;42.192;24.326;2023-03-07T08:32:37;10.97;;;9.20;;
12429;SDS011;6279;42.192;24.326;2023-03-07T08:35:02;11.83;;;10.13;;
12429;SDS011;6279;42.192;24.326;2023-03-07T08:37:28;14.77;;;10.43;;
12429;SDS011;6279;42.192;24.326;2023-03-07T08:39:53;10.83;;;8.93;;
12429;SDS011;6279;42.192;24.326;2023-03-07T08:42:19;10.40;;;8.50;;
12429;SDS011;6279;42.192;24.326;2023-03-07T08:44:44;11.17;;;8.47;;
12429;SDS011;6279;42.192;24.326;2023-03-07T08:47:10;9.70;;;8.70;;
12429;SDS011;6279;42.192;24.326;2023-03-07T08:49:37;10.87;;;9.77;;
12429;SDS011;6279;42.192;24.326;2023-03-07T08:52:03;11.03;;;9.90;;
12429;SDS011;6279;42.192;24.326;2023-03-07T08:54:29;11.77;;;10.57;;
12429;SDS011;6279;42.192;24.326;2023-03-07T08:56:56;12.57;;;10.43;;
12429;SDS011;6279;42.192;24.326;2023-03-07T08:59:22;14.70;;;10.90;;
12429;SDS011;6279;42.192;24.326;2023-03-07T09:01:48;13.18;;;11.02;;
12429;SDS011;6279;42.192;24.326;2023-03-07T09:04:13;11.63;;;10.40;;
12429;SDS011;6279;42.192;24.326;2023-03-07T09:06:39;13.90;;;10.87;;
12429;SDS011;6279;42.192;24.326;2023-03-07T09:09:04;13.87;;;10.77;;
12429;SDS011;6279;42.192;24.326;2023-03-07T09:11:30;14.95;;;10.80;;
12429;SDS011;6279;42.192;24.326;2023-03-07T09:13:55;15.70;;;11.90;;
12429;SDS011;6279;42.192;24.326;2023-03-07T09:16:21;13.88;;;11.18;;
12429;SDS011;6279;42.192;24.326;2023-03-07T09:18:47;18.60;;;16.73;;
12429;SDS011;6279;42.192;24.326;2023-03-07T09:21:13;11.05;;;9.80;;
12429;SDS011;6279;42.192;24.326;2023-03-07T09:23:38;14.35;;;11.07;;
12429;SDS011;6279;42.192;24.326;2023-03-07T09:26:04;11.73;;;10.45;;
12429;SDS011;6279;42.192;24.326;2023-03-07T09:28:30;14.80;;;11.82;;
12429;SDS011;6279;42.192;24.326;2023-03-07T09:30:55;16.20;;;11.83;;
12429;SDS011;6279;42.192;24.326;2023-03-07T09:33:21;13.80;;;11.47;;
12429;SDS011;6279;42.192;24.326;2023-03-07T09:35:46;14.67;;;11.27;;
12429;SDS011;6279;42.192;24.326;2023-03-07T09:38:12;15.60;;;11.90;;
12429;SDS011;6279;42.192;24.326;2023-03-07T09:40:38;16.67;;;11.77;;
12429;SDS011;6279;42.192;24.326;2023-03-07T09:43:19;12.90;;;10.85;;
12429;SDS011;6279;42.192;24.326;2023-03-07T09:45:50;13.00;;;11.60;;
12429;SDS011;6279;42.192;24.326;2023-03-07T09:51:17;16.67;;;12.45;;
12429;SDS011;6279;42.192;24.326;2023-03-07T09:56:18;17.13;;;13.80;;
12429;SDS011;6279;42.192;24.326;2023-03-07T09:58:58;19.97;;;13.07;;
12429;SDS011;6279;42.192;24.326;2023-03-07T10:01:29;19.27;;;13.40;;
12429;SDS011;6279;42.192;24.326;2023-03-07T10:04:03;19.00;;;13.03;;
12429;SDS011;6279;42.192;24.326;2023-03-07T10:06:37;14.53;;;12.70;;
12429;SDS011;6279;42.192;24.326;2023-03-07T10:09:10;15.83;;;11.83;;
12429;SDS011;6279;42.192;24.326;2023-03-07T10:16:59;15.87;;;10.83;;
12429;SDS011;6279;42.192;24.326;2023-03-07T10:19:29;14.83;;;10.90;;
12429;SDS011;6279;42.192;24.326;2023-03-07T10:22:00;12.37;;;10.17;;
12429;SDS011;6279;42.192;24.326;2023-03-07T10:27:12;23.13;;;11.37;;
12429;SDS011;6279;42.192;24.326;2023-03-07T10:29:45;12.57;;;10.20;;
12429;SDS011;6279;42.192;24.326;2023-03-07T10:32:31;12.30;;;9.87;;
12429;SDS011;6279;42.192;24.326;2023-03-07T10:37:55;13.30;;;8.87;;
12429;SDS011;6279;42.192;24.326;2023-03-07T10:43:31;11.83;;;10.03;;
12429;SDS011;6279;42.192;24.326;2023-03-07T10:48:23;15.70;;;9.77;;
12429;SDS011;6279;42.192;24.326;2023-03-07T10:54:01;11.87;;;8.33;;
12429;SDS011;6279;42.192;24.326;2023-03-07T10:56:29;9.00;;;7.43;;
12429;SDS011;6279;42.192;24.326;2023-03-07T10:59:02;8.70;;;7.13;;
12429;SDS011;6279;42.192;24.326;2023-03-07T11:01:28;9.20;;;7.20;;
12429;SDS011;6279;42.192;24.326;2023-03-07T11:04:19;10.07;;;6.93;;
12429;SDS011;6279;42.192;24.326;2023-03-07T11:06:58;10.53;;;7.20;;
12429;SDS011;6279;42.192;24.326;2023-03-07T11:09:31;7.77;;;6.47;;
12429;SDS011;6279;42.192;24.326;2023-03-07T11:12:19;7.03;;;6.33;;
12429;SDS011;6279;42.192;24.326;2023-03-07T11:14:48;5.70;;;5.10;;
12429;SDS011;6279;42.192;24.326;2023-03-07T11:19:44;7.03;;;6.23;;
12429;SDS011;6279;42.192;24.326;2023-03-07T11:24:56;8.73;;;6.93;;
12429;SDS011;6279;42.192;24.326;2023-03-07T11:27:29;7.90;;;5.97;;
12429;SDS011;6279;42.192;24.326;2023-03-07T11:30:07;8.70;;;6.73;;
12429;SDS011;6279;42.192;24.326;2023-03-07T11:35:53;10.57;;;6.30;;
12429;SDS011;6279;42.192;24.326;2023-03-07T11:41:28;6.13;;;5.53;;
12429;SDS011;6279;42.192;24.326;2023-03-07T11:46:52;7.13;;;5.33;;
12429;SDS011;6279;42.192;24.326;2023-03-07T11:49:42;6.70;;;5.20;;
12429;SDS011;6279;42.192;24.326;2023-03-07T12:05:34;7.87;;;5.83;;
12429;SDS011;6279;42.192;24.326;2023-03-07T12:16:02;5.70;;;4.73;;
12429;SDS011;6279;42.192;24.326;2023-03-07T12:24:24;5.87;;;4.70;;
12429;SDS011;6279;42.192;24.326;2023-03-07T12:32:03;9.63;;;6.63;;
12429;SDS011;6279;42.192;24.326;2023-03-07T12:34:35;8.93;;;7.00;;
12429;SDS011;6279;42.192;24.326;2023-03-07T12:37:09;10.43;;;7.33;;
12429;SDS011;6279;42.192;24.326;2023-03-07T12:40:12;9.27;;;7.43;;
12429;SDS011;6279;42.192;24.326;2023-03-07T12:42:37;9.10;;;6.73;;
12429;SDS011;6279;42.192;24.326;2023-03-07T12:48:15;7.57;;;6.67;;
12429;SDS011;6279;42.192;24.326;2023-03-07T12:53:39;8.23;;;6.57;;
12429;SDS011;6279;42.192;24.326;2023-03-07T12:56:17;7.60;;;6.23;;
12429;SDS011;6279;42.192;24.326;2023-03-07T13:01:15;10.83;;;8.13;;
12429;SDS011;6279;42.192;24.326;2023-03-07T13:06:22;9.77;;;7.00;;
12429;SDS011;6279;42.192;24.326;2023-03-07T13:08:49;7.37;;;5.67;;
12429;SDS011;6279;42.192;24.326;2023-03-07T13:11:22;8.13;;;5.63;;
12429;SDS011;6279;42.192;24.326;2023-03-07T13:13:55;9.83;;;6.63;;
12429;SDS011;6279;42.192;24.326;2023-03-07T13:22:00;8.20;;;5.70;;
12429;SDS011;6279;42.192;24.326;2023-03-07T13:24:34;6.90;;;6.13;;
12429;SDS011;6279;42.192;24.326;2023-03-07T13:27:02;7.20;;;5.90;;
12429;SDS011;6279;42.192;24.326;2023-03-07T13:30:01;8.20;;;6.47;;
12429;SDS011;6279;42.192;24.326;2023-03-07T13:35:12;7.40;;;6.17;;
12429;SDS011;6279;42.192;24.326;2023-03-07T13:40:50;8.20;;;6.10;;
12429;SDS011;6279;42.192;24.326;2023-03-07T13:45:52;9.37;;;6.20;;
12429;SDS011;6279;42.192;24.326;2023-03-07T13:53:12;8.10;;;5.80;;
12429;SDS011;6279;42.192;24.326;2023-03-07T13:55:49;8.57;;;6.70;;
12429;SDS011;6279;42.192;24.326;2023-03-07T13:58:33;9.47;;;6.50;;
12429;SDS011;6279;42.192;24.326;2023-03-07T14:04:23;14.10;;;7.07;;
12429;SDS011;6279;42.192;24.326;2023-03-07T14:07:00;9.43;;;6.60;;
12429;SDS011;6279;42.192;24.326;2023-03-07T14:09:30;8.07;;;6.33;;
12429;SDS011;6279;42.192;24.326;2023-03-07T14:21:02;7.40;;;6.13;;
12429;SDS011;6279;42.192;24.326;2023-03-07T14:26:26;7.43;;;5.77;;
12429;SDS011;6279;42.192;24.326;2023-03-07T14:31:57;6.47;;;5.27;;
12429;SDS011;6279;42.192;24.326;2023-03-07T14:34:26;9.53;;;5.77;;
12429;SDS011;6279;42.192;24.326;2023-03-07T14:52:41;7.63;;;5.57;;
12429;SDS011;6279;42.192;24.326;2023-03-07T14:55:13;7.87;;;6.07;;
12429;SDS011;6279;42.192;24.326;2023-03-07T14:57:42;8.43;;;5.40;;
12429;SDS011;6279;42.192;24.326;2023-03-07T15:02:54;9.23;;;5.90;;
12429;SDS011;6279;42.192;24.326;2023-03-07T15:05:32;7.93;;;5.50;;
12429;SDS011;6279;42.192;24.326;2023-03-07T15:08:00;7.03;;;4.90;;
12429;SDS011;6279;42.192;24.326;2023-03-07T15:10:28;6.87;;;5.07;;
12429;SDS011;6279;42.192;24.326;2023-03-07T15:12:59;6.77;;;5.20;;
12429;SDS011;6279;42.192;24.326;2023-03-07T15:15:34;11.57;;;5.67;;
12429;SDS011;6279;42.192;24.326;2023-03-07T15:18:39;9.33;;;5.57;;
12429;SDS011;6279;42.192;24.326;2023-03-07T15:21:04;9.90;;;6.17;;
12429;SDS011;6279;42.192;24.326;2023-03-07T15:23:31;14.87;;;7.00;;
12429;SDS011;6279;42.192;24.326;2023-03-07T15:26:02;9.77;;;6.30;;
12429;SDS011;6279;42.192;24.326;2023-03-07T15:28:35;12.87;;;6.53;;
12429;SDS011;6279;42.192;24.326;2023-03-07T15:31:04;8.93;;;6.80;;
12429;SDS011;6279;42.192;24.326;2023-03-07T15:33:30;9.27;;;6.63;;
12429;SDS011;6279;42.192;24.326;2023-03-07T15:39:11;8.67;;;5.67;;
12429;SDS011;6279;42.192;24.326;2023-03-07T15:41:58;8.27;;;6.43;;
12429;SDS011;6279;42.192;24.326;2023-03-07T15:44:28;13.60;;;7.07;;
12429;SDS011;6279;42.192;24.326;2023-03-07T15:46:55;9.73;;;6.50;;
12429;SDS011;6279;42.192;24.326;2023-03-07T15:49:40;8.63;;;5.93;;
12429;SDS011;6279;42.192;24.326;2023-03-07T15:52:41;10.93;;;6.40;;
12429;SDS011;6279;42.192;24.326;2023-03-07T15:55:02;11.03;;;7.13;;
12429;SDS011;6279;42.192;24.326;2023-03-07T15:57:46;10.80;;;7.43;;
12429;SDS011;6279;42.192;24.326;2023-03-07T16:00:16;13.10;;;7.57;;
12429;SDS011;6279;42.192;24.326;2023-03-07T16:03:10;10.37;;;7.90;;
12429;SDS011;6279;42.192;24.326;2023-03-07T16:05:43;10.50;;;7.40;;
12429;SDS011;6279;42.192;24.326;2023-03-07T16:08:13;8.87;;;6.90;;
12429;SDS011;6279;42.192;24.326;2023-03-07T16:10:45;8.33;;;6.37;;
12429;SDS011;6279;42.192;24.326;2023-03-07T16:13:14;9.77;;;7.27;;
12429;SDS011;6279;42.192;24.326;2023-03-07T16:15:42;13.17;;;7.40;;
12429;SDS011;6279;42.192;24.326;2023-03-07T16:18:09;13.73;;;9.10;;
12429;SDS011;6279;42.192;24.326;2023-03-07T16:20:47;12.43;;;7.97;;
12429;SDS011;6279;42.192;24.326;2023-03-07T16:23:12;23.23;;;12.50;;
12429;SDS011;6279;42.192;24.326;2023-03-07T16:25:38;39.17;;;17.73;;
12429;SDS011;6279;42.192;24.326;2023-03-07T16:28:03;41.47;;;18.83;;
12429;SDS011;6279;42.192;24.326;2023-03-07T16:30:30;29.23;;;15.73;;
12429;SDS011;6279;42.192;24.326;2023-03-07T16:32:56;24.83;;;14.70;;
12429;SDS011;6279;42.192;24.326;2023-03-07T16:35:22;24.73;;;15.27;;
12429;SDS011;6279;42.192;24.326;2023-03-07T16:37:49;30.17;;;18.17;;
12429;SDS011;6279;42.192;24.326;2023-03-07T16:40:15;36.23;;;22.70;;
12429;SDS011;6279;42.192;24.326;2023-03-07T16:42:44;41.33;;;23.47;;
12429;SDS011;6279;42.192;24.326;2023-03-07T16:47:47;74.97;;;39.03;;
12429;SDS011;6279;42.192;24.326;2023-03-07T16:50:16;75.27;;;38.53;;
12429;SDS011;6279;42.192;24.326;2023-03-07T16:52:43;59.97;;;33.57;;
12429;SDS011;6279;42.192;24.326;2023-03-07T16:55:12;56.70;;;30.50;;
12429;SDS011;6279;42.192;24.326;2023-03-07T16:57:38;77.80;;;37.63;;
12429;SDS011;6279;42.192;24.326;2023-03-07T17:00:06;75.10;;;37.43;;
12429;SDS011;6279;42.192;24.326;2023-03-07T17:02:32;69.27;;;37.10;;
12429;SDS011;6279;42.192;24.326;2023-03-07T17:05:00;55.70;;;31.53;;
12429;SDS011;6279;42.192;24.326;2023-03-07T17:07:38;67.23;;;33.70;;
12429;SDS011;6279;42.192;24.326;2023-03-07T17:10:04;60.97;;;33.00;;